| time (UTC) | temp C | wind direction | speed KPH | gust KPH | rain 1hr cm | rain 24hr cm | rain mn cm | humidity % | barometer mb |
| 20260505140515 | 13 | 150 | 6.4 | 17.7 | 0.00 | 0.00 | 0.00 | 84 | 1014.6 |
| 20260505124515 | 13 | 121 | 12.9 | 19.3 | 0.00 | 0.00 | 0.00 | 86 | 1013.8 |
| 20260505123515 | 13 | 134 | 9.7 | 19.3 | 0.00 | 0.00 | 0.00 | 86 | 1013.8 |
| 20260505122535 | 13 | 129 | 9.7 | 19.3 | 0.00 | 0.00 | 0.00 | 87 | 1013.7 |
| 20260505121516 | 13 | 135 | 8.0 | 14.5 | 0.00 | 0.00 | 0.00 | 87 | 1013.6 |
| 20260505120536 | 13 | 125 | 9.7 | 19.3 | 0.00 | 0.00 | 0.00 | 87 | 1013.6 |
| 20260505115518 | 13 | 122 | 11.3 | 16.1 | 0.00 | 0.00 | 0.00 | 87 | 1013.6 |
| 20260505114535 | 13 | 141 | 8.0 | 20.9 | 0.00 | 0.00 | 0.00 | 87 | 1013.6 |
| 20260505113516 | 13 | 127 | 12.9 | 20.9 | 0.00 | 0.00 | 0.00 | 88 | 1013.5 |
| 20260505112515 | 13 | 142 | 8.0 | 19.3 | 0.00 | 0.00 | 0.00 | 87 | 1013.4 |
| 20260505111515 | 13 | 130 | 11.3 | 17.7 | 0.00 | 0.00 | 0.00 | 88 | 1013.4 |
| 20260505110515 | 13 | 130 | 11.3 | 17.7 | 0.00 | 0.00 | 0.00 | 88 | 1013.3 |
| 20260505101515 | 13 | 121 | 11.3 | 22.5 | 0.00 | 0.00 | 0.00 | 88 | 1012.9 |
| 20260505100515 | 13 | 128 | 11.3 | 19.3 | 0.00 | 0.00 | 0.00 | 88 | 1012.9 |
| 20260505095515 | 13 | 126 | 9.7 | 20.9 | 0.00 | 0.00 | 0.00 | 88 | 1012.8 |
| 20260505094515 | 13 | 136 | 9.7 | 20.9 | 0.00 | 0.00 | 0.00 | 87 | 1012.8 |
| 20260505093515 | 13 | 133 | 9.7 | 19.3 | 0.00 | 0.00 | 0.00 | 88 | 1012.7 |
| 20260505092515 | 13 | 128 | 11.3 | 19.3 | 0.00 | 0.00 | 0.00 | 88 | 1012.6 |
| 20260505091515 | 13 | 135 | 9.7 | 16.1 | 0.00 | 0.00 | 0.00 | 88 | 1012.4 |
| 20260505090515 | 13 | 127 | 8.0 | 12.9 | 0.00 | 0.00 | 0.00 | 88 | 1012.4 |
| 20260505085514 | 13 | 121 | 8.0 | 14.5 | 0.00 | 0.00 | 0.00 | 87 | 1012.4 |
| 20260505084515 | 13 | 125 | 8.0 | 14.5 | 0.00 | 0.00 | 0.00 | 87 | 1012.4 |
| 20260505083515 | 13 | 123 | 8.0 | 19.3 | 0.00 | 0.00 | 0.00 | 87 | 1012.3 |
| 20260505082535 | 13 | 131 | 11.3 | 19.3 | 0.00 | 0.00 | 0.00 | 88 | 1012.2 |
| 20260505081515 | 13 | 134 | 9.7 | 17.7 | 0.00 | 0.00 | 0.00 | 87 | 1012.2 |
| 20260505080535 | 13 | 132 | 11.3 | 19.3 | 0.00 | 0.00 | 0.00 | 87 | 1012.2 |
| 20260505075515 | 13 | 134 | 6.4 | 16.1 | 0.00 | 0.00 | 0.00 | 86 | 1012.2 |
| 20260505074516 | 13 | 127 | 9.7 | 16.1 | 0.00 | 0.00 | 0.00 | 87 | 1012.1 |
| 20260505073515 | 13 | 116 | 8.0 | 17.7 | 0.00 | 0.00 | 0.00 | 86 | 1011.8 |
| 20260505072515 | 13 | 122 | 9.7 | 17.7 | 0.00 | 0.00 | 0.00 | 86 | 1011.8 |
| 20260505071515 | 13 | 120 | 8.0 | 17.7 | 0.00 | 0.00 | 0.00 | 85 | 1011.7 |
| 20260505070515 | 13 | 126 | 8.0 | 17.7 | 0.00 | 0.00 | 0.00 | 85 | 1011.6 |
| 20260505065515 | 14 | 121 | 9.7 | 17.7 | 0.00 | 0.00 | 0.00 | 85 | 1011.5 |
| 20260505064515 | 14 | 119 | 8.0 | 16.1 | 0.00 | 0.00 | 0.00 | 84 | 1011.5 |
| 20260505063536 | 14 | 111 | 9.7 | 16.1 | 0.00 | 0.00 | 0.00 | 84 | 1011.3 |
| 20260505062514 | 14 | 116 | 8.0 | 17.7 | 0.00 | 0.00 | 0.00 | 83 | 1011.2 |
| 20260505061516 | 15 | 127 | 9.7 | 17.7 | 0.00 | 0.00 | 0.00 | 82 | 1010.9 |
| 20260505060516 | 15 | 129 | 9.7 | 17.7 | 0.00 | 0.00 | 0.00 | 82 | 1010.9 |
| 20260505055515 | 15 | 122 | 9.7 | 16.1 | 0.00 | 0.00 | 0.00 | 82 | 1010.7 |
| 20260505054516 | 15 | 134 | 11.3 | 17.7 | 0.00 | 0.00 | 0.00 | 81 | 1010.7 |
| 20260505053514 | 15 | 141 | 11.3 | 17.7 | 0.00 | 0.00 | 0.00 | 81 | 1010.5 |
| 20260505052535 | 15 | 141 | 9.7 | 16.1 | 0.00 | 0.00 | 0.00 | 81 | 1010.4 |
| 20260505051515 | 15 | 143 | 11.3 | 17.7 | 0.00 | 0.00 | 0.00 | 80 | 1010.4 |
| 20260505050516 | 16 | 143 | 11.3 | 19.3 | 0.00 | 0.00 | 0.00 | 80 | 1010.4 |
| 20260505041515 | 18 | 175 | 6.4 | 11.3 | 0.00 | 0.00 | 0.00 | 73 | 1009.6 |
| 20260505040516 | 18 | 159 | 6.4 | 11.3 | 0.00 | 0.00 | 0.00 | 73 | 1009.5 |
| 20260505035515 | 18 | 161 | 9.7 | 11.3 | 0.00 | 0.00 | 0.00 | 73 | 1009.4 |
| 20260505034515 | 18 | 170 | 8.0 | 11.3 | 0.00 | 0.00 | 0.00 | 72 | 1009.2 |
| 20260505033516 | 19 | 170 | 6.4 | 11.3 | 0.00 | 0.00 | 0.00 | 70 | 1009.1 |
| 20260505032515 | 20 | 168 | 8.0 | 14.5 | 0.00 | 0.00 | 0.00 | 70 | 1009.0 |
| 20260505031515 | 20 | 176 | 8.0 | 14.5 | 0.00 | 0.00 | 0.00 | 68 | 1008.9 |
| 20260505030515 | 21 | 159 | 11.3 | 14.5 | 0.00 | 0.00 | 0.00 | 65 | 1008.8 |
| 20260505025515 | 23 | 192 | 4.8 | 8.0 | 0.00 | 0.00 | 0.00 | 60 | 1008.6 |
| 20260505024516 | 23 | 256 | 3.2 | 6.4 | 0.00 | 0.00 | 0.00 | 58 | 1008.6 |
| 20260505023515 | 23 | 244 | 3.2 | 6.4 | 0.00 | 0.00 | 0.00 | 57 | 1008.6 |
| 20260505022515 | 24 | 236 | 3.2 | 6.4 | 0.00 | 0.00 | 0.00 | 56 | 1008.6 |
| 20260505021516 | 22 | 325 | 4.8 | 11.3 | 0.00 | 0.00 | 0.00 | 59 | 1008.5 |
| 20260505020516 | 23 | 307 | 6.4 | 12.9 | 0.00 | 0.00 | 0.00 | 59 | 1008.5 |
| 20260505015515 | 25 | 182 | 6.4 | 14.5 | 0.00 | 0.00 | 0.00 | 58 | 1008.4 |
| 20260505014515 | 25 | 168 | 8.0 | 12.9 | 0.00 | 0.00 | 0.00 | 58 | 1008.3 |
| 20260505013515 | 25 | 167 | 9.7 | 12.9 | 0.00 | 0.00 | 0.00 | 58 | 1008.3 |
| 20260505012515 | 25 | 174 | 8.0 | 12.9 | 0.00 | 0.00 | 0.00 | 57 | 1008.3 |
| 20260505011514 | 25 | 167 | 8.0 | 14.5 | 0.00 | 0.00 | 0.00 | 57 | 1008.4 |
| 20260505010515 | 25 | 156 | 9.7 | 14.5 | 0.00 | 0.00 | 0.00 | 57 | 1008.4 |
| 20260505005514 | 26 | 178 | 8.0 | 12.9 | 0.00 | 0.00 | 0.00 | 55 | 1008.4 |
| 20260505004515 | 25 | 167 | 9.7 | 12.9 | 0.00 | 0.00 | 0.00 | 54 | 1008.5 |
| 20260505003515 | 25 | 170 | 9.7 | 12.9 | 0.00 | 0.00 | 0.00 | 54 | 1008.5 |
| 20260505002515 | 26 | 171 | 8.0 | 12.9 | 0.00 | 0.00 | 0.00 | 52 | 1008.5 |
| 20260505001515 | 26 | 172 | 8.0 | 11.3 | 0.00 | 0.00 | 0.00 | 52 | 1008.6 |
| 20260505000516 | 26 | 157 | 6.4 | 9.7 | 0.00 | 0.00 | 0.00 | 52 | 1008.6 |
| 20260504235515 | 26 | 159 | 6.4 | 9.7 | 0.00 | 0.00 | 0.00 | 51 | 1008.6 |
| 20260504234515 | 26 | 184 | 6.4 | 11.3 | 0.00 | 0.00 | 0.00 | 50 | 1008.7 |
| 20260504233515 | 26 | 159 | 6.4 | 11.3 | 0.00 | 0.00 | 0.00 | 51 | 1008.7 |
| 20260504232515 | 26 | 179 | 6.4 | 11.3 | 0.00 | 0.00 | 0.00 | 50 | 1008.6 |
| 20260504231515 | 26 | 148 | 6.4 | 11.3 | 0.00 | 0.00 | 0.00 | 50 | 1008.6 |
| 20260504230535 | 26 | 162 | 6.4 | 12.9 | 0.00 | 0.00 | 0.00 | 51 | 1008.8 |
| 20260504225536 | 26 | 166 | 6.4 | 12.9 | 0.00 | 0.00 | 0.00 | 51 | 1008.9 |
| 20260504224536 | 25 | 140 | 8.0 | 12.9 | 0.00 | 0.00 | 0.00 | 51 | 1009.1 |
| 20260504223535 | 26 | 158 | 6.4 | 12.9 | 0.00 | 0.00 | 0.00 | 51 | 1009.1 |
| 20260504222515 | 26 | 174 | 6.4 | 9.7 | 0.00 | 0.00 | 0.00 | 50 | 1009.3 |
| 20260504221515 | 26 | 160 | 4.8 | 9.7 | 0.00 | 0.00 | 0.00 | 51 | 1009.4 |
| 20260504220515 | 26 | 180 | 4.8 | 11.3 | 0.00 | 0.00 | 0.00 | 53 | 1009.5 |
| 20260504215515 | 25 | 148 | 8.0 | 11.3 | 0.00 | 0.00 | 0.00 | 55 | 1009.6 |
| 20260504214515 | 25 | 140 | 6.4 | 12.9 | 0.00 | 0.00 | 0.00 | 56 | 1009.6 |
| 20260504213515 | 24 | 140 | 8.0 | 11.3 | 0.00 | 0.00 | 0.00 | 57 | 1009.7 |
| 20260504212515 | 24 | 157 | 6.4 | 12.9 | 0.00 | 0.00 | 0.00 | 58 | 1009.8 |
| 20260504211516 | 23 | 157 | 6.4 | 12.9 | 0.00 | 0.00 | 0.00 | 59 | 1009.9 |
| 20260504210515 | 23 | 151 | 8.0 | 12.9 | 0.00 | 0.00 | 0.00 | 59 | 1009.9 |
| 20260504205516 | 23 | 142 | 8.0 | 12.9 | 0.00 | 0.00 | 0.00 | 59 | 1010.0 |
| 20260504204555 | 24 | 158 | 6.4 | 12.9 | 0.00 | 0.00 | 0.00 | 59 | 1010.0 |
| 20260504203515 | 24 | 183 | 6.4 | 11.3 | 0.00 | 0.00 | 0.00 | 59 | 1010.0 |
| 20260504202515 | 23 | 151 | 6.4 | 11.3 | 0.00 | 0.00 | 0.00 | 60 | 1010.0 |
| 20260504201515 | 23 | 167 | 6.4 | 9.7 | 0.00 | 0.00 | 0.00 | 60 | 1010.0 |
| 20260504200515 | 23 | 169 | 4.8 | 12.9 | 0.00 | 0.00 | 0.00 | 60 | 1010.1 |
| 20260504195515 | 22 | 174 | 4.8 | 14.5 | 0.00 | 0.00 | 0.00 | 61 | 1010.0 |
| 20260504194515 | 22 | 159 | 6.4 | 11.3 | 0.00 | 0.00 | 0.00 | 60 | 1010.1 |
| 20260504193515 | 22 | 174 | 6.4 | 12.9 | 0.00 | 0.00 | 0.00 | 60 | 1010.1 |
| 20260504192515 | 22 | 164 | 8.0 | 12.9 | 0.00 | 0.00 | 0.00 | 59 | 1010.2 |
| 20260504191515 | 22 | 170 | 9.7 | 12.9 | 0.00 | 0.00 | 0.00 | 58 | 1010.2 |
| 20260504190516 | 22 | 166 | 8.0 | 9.7 | 0.00 | 0.00 | 0.00 | 56 | 1010.4 |
| 20260504185515 | 23 | 166 | 4.8 | 8.0 | 0.00 | 0.00 | 0.00 | 53 | 1010.4 |
| 20260504184515 | 24 | 171 | 3.2 | 6.4 | 0.00 | 0.00 | 0.00 | 53 | 1010.4 |
| 20260504183514 | 23 | 165 | 3.2 | 9.7 | 0.00 | 0.00 | 0.00 | 56 | 1010.4 |
| 20260504182515 | 22 | 163 | 6.4 | 9.7 | 0.00 | 0.00 | 0.00 | 57 | 1010.4 |
| 20260504181515 | 23 | 170 | 4.8 | 8.0 | 0.00 | 0.00 | 0.00 | 56 | 1010.5 |
| 20260504180515 | 22 | 171 | 6.4 | 11.3 | 0.00 | 0.00 | 0.00 | 58 | 1010.4 |
| 20260504175515 | 22 | 167 | 6.4 | 11.3 | 0.00 | 0.00 | 0.00 | 56 | 1010.4 |
| 20260504174515 | 22 | 149 | 4.8 | 8.0 | 0.00 | 0.00 | 0.00 | 57 | 1010.3 |
| 20260504173515 | 21 | 159 | 3.2 | 6.4 | 0.00 | 0.00 | 0.00 | 59 | 1010.4 |
| 20260504172555 | 21 | 164 | 4.8 | 8.0 | 0.00 | 0.00 | 0.00 | 60 | 1010.5 |
| 20260504171535 | 20 | 159 | 4.8 | 8.0 | 0.00 | 0.00 | 0.00 | 60 | 1010.5 |
| 20260504170535 | 20 | 147 | 4.8 | 9.7 | 0.00 | 0.00 | 0.00 | 58 | 1010.5 |
| 20260504150515 | 16 | 98 | 1.6 | 4.8 | 0.00 | 0.00 | 0.00 | 73 | 1009.9 |